Time;durP1;ratioP1;P1;durP2;ratioP2;P2;SDS_P1;SDS_P2;PMS_P1;PMS_P2;Temp;Humidity;BMP_temperature;BMP_pressure;BME280_temperature;BME280_humidity;BME280_pressure;Samples;Min_cycle;Max_cycle;Signal;HPM_P1;HPM_P2
2023/06/11 00:00:30;;;;;;;13.85;9.50;;;14.70;99.90;;;;;;5125737;27;20043;-66
2023/06/11 00:02:57;;;;;;;12.65;9.00;;;14.70;99.90;;;;;;5133553;27;20043;-66
2023/06/11 00:05:27;;;;;;;13.23;8.70;;;14.70;99.90;;;;;;5130103;27;20396;-65
2023/06/11 00:07:55;;;;;;;14.45;9.32;;;14.70;99.90;;;;;;5114939;27;20063;-66
2023/06/11 00:10:23;;;;;;;12.35;9.00;;;14.70;99.90;;;;;;5127984;27;20100;-66
2023/06/11 00:12:49;;;;;;;11.40;8.23;;;14.70;99.90;;;;;;5103191;28;20035;-66
2023/06/11 00:15:16;;;;;;;13.73;9.40;;;14.70;99.90;;;;;;5117753;27;20039;-65
2023/06/11 00:17:43;;;;;;;11.50;8.90;;;14.70;99.90;;;;;;5118569;27;20054;-65
2023/06/11 00:20:11;;;;;;;15.15;9.45;;;14.60;99.90;;;;;;5130748;27;20179;-65
2023/06/11 00:22:39;;;;;;;14.63;9.45;;;14.60;99.90;;;;;;5122367;27;20048;-66
2023/06/11 00:25:07;;;;;;;15.60;9.93;;;14.60;99.90;;;;;;5111689;27;20115;-65
2023/06/11 00:27:36;;;;;;;13.93;9.50;;;14.60;99.90;;;;;;5120063;27;20046;-65
2023/06/11 00:30:04;;;;;;;13.95;8.75;;;14.60;99.90;;;;;;5114385;27;20054;-65
2023/06/11 00:32:35;;;;;;;14.77;10.25;;;14.60;99.90;;;;;;5115649;27;20044;-65
2023/06/11 00:35:08;;;;;;;14.52;9.75;;;14.60;99.90;;;;;;5105596;27;20039;-65
2023/06/11 00:37:36;;;;;;;15.52;9.27;;;14.50;99.90;;;;;;5107905;28;20529;-65
2023/06/11 00:40:06;;;;;;;14.60;9.93;;;14.40;99.90;;;;;;5106450;27;20061;-65
2023/06/11 00:42:33;;;;;;;13.57;9.00;;;14.40;99.90;;;;;;5109168;27;20043;-65
2023/06/11 00:45:03;;;;;;;16.60;10.57;;;14.30;99.90;;;;;;5115355;27;20047;-66
2023/06/11 00:47:31;;;;;;;14.98;9.65;;;14.20;99.90;;;;;;5125534;27;20502;-66
2023/06/11 00:50:00;;;;;;;17.80;9.65;;;14.20;99.90;;;;;;5106620;27;20055;-66
2023/06/11 00:52:27;;;;;;;13.93;10.52;;;14.10;99.90;;;;;;5137703;27;20070;-65
2023/06/11 00:54:54;;;;;;;15.20;9.45;;;14.10;99.90;;;;;;5114448;27;20142;-66
2023/06/11 00:57:25;;;;;;;16.20;9.68;;;14.10;99.90;;;;;;5094312;28;20510;-66
2023/06/11 00:59:53;;;;;;;16.55;10.00;;;14.10;99.90;;;;;;5094567;28;20167;-65
2023/06/11 01:02:36;;;;;;;17.90;10.85;;;14.10;99.90;;;;;;5106664;27;20047;-65
2023/06/11 01:05:07;;;;;;;13.73;9.98;;;14.10;99.90;;;;;;5122572;27;20051;-65
2023/06/11 01:07:41;;;;;;;14.75;10.10;;;14.10;99.90;;;;;;5111117;28;20043;-65
2023/06/11 01:10:11;;;;;;;13.98;9.60;;;14.10;99.90;;;;;;5103949;27;20391;-65
2023/06/11 01:12:38;;;;;;;17.48;10.23;;;14.10;99.90;;;;;;5099574;28;20496;-65
2023/06/11 01:15:14;;;;;;;18.10;10.20;;;14.10;99.90;;;;;;5093705;28;20032;-65
2023/06/11 01:17:48;;;;;;;16.35;9.52;;;14.10;99.90;;;;;;5101560;28;20085;-65
2023/06/11 01:20:18;;;;;;;14.32;10.27;;;14.00;99.90;;;;;;5117754;27;20063;-66
2023/06/11 01:23:04;;;;;;;15.05;10.60;;;14.00;99.90;;;;;;5119830;27;20073;-66
2023/06/11 01:26:06;;;;;;;15.57;9.07;;;13.90;99.90;;;;;;5094785;27;20062;-65
2023/06/11 01:28:37;;;;;;;18.17;10.18;;;13.80;99.90;;;;;;5102738;28;20389;-65
2023/06/11 01:31:11;;;;;;;14.45;10.60;;;13.80;99.90;;;;;;5092874;28;20044;-65
2023/06/11 01:33:38;;;;;;;17.38;10.25;;;13.80;99.90;;;;;;5094029;28;20048;-65
2023/06/11 01:36:10;;;;;;;16.40;10.82;;;13.70;99.90;;;;;;5111880;27;20042;-65
2023/06/11 01:38:41;;;;;;;16.90;10.23;;;13.70;99.90;;;;;;5113111;27;20042;-65
2023/06/11 01:41:15;;;;;;;16.75;10.18;;;13.70;99.90;;;;;;5092305;27;20101;-66
2023/06/11 01:43:42;;;;;;;13.88;9.73;;;13.70;99.90;;;;;;5113870;27;20134;-65
2023/06/11 01:46:09;;;;;;;17.48;9.95;;;13.70;99.90;;;;;;5121775;27;20043;-65
2023/06/11 01:48:37;;;;;;;14.40;9.85;;;13.70;99.90;;;;;;5102138;28;20036;-65
2023/06/11 01:51:03;;;;;;;14.43;9.82;;;13.70;99.90;;;;;;5094004;27;20122;-65
2023/06/11 01:53:30;;;;;;;17.85;10.55;;;13.60;99.90;;;;;;5136624;27;20039;-65
2023/06/11 01:55:58;;;;;;;15.45;10.63;;;13.60;99.90;;;;;;5106676;27;20039;-65
2023/06/11 01:58:25;;;;;;;19.40;10.50;;;13.60;99.90;;;;;;5105433;27;20131;-66
2023/06/11 02:00:51;;;;;;;16.15;10.13;;;13.60;99.90;;;;;;5095063;27;20130;-66
2023/06/11 02:03:18;;;;;;;19.45;11.80;;;13.50;99.90;;;;;;5124150;27;20058;-66
2023/06/11 02:05:45;;;;;;;19.77;11.13;;;13.50;99.90;;;;;;5098257;28;20035;-66
2023/06/11 02:08:12;;;;;;;17.33;10.85;;;13.60;99.90;;;;;;5093010;27;20056;-65
2023/06/11 02:10:39;;;;;;;19.65;10.18;;;13.60;99.90;;;;;;5111517;27;20507;-66
2023/06/11 02:13:06;;;;;;;15.85;10.82;;;13.60;99.90;;;;;;5128628;27;20031;-65
2023/06/11 02:15:33;;;;;;;14.93;10.40;;;13.60;99.90;;;;;;5103760;28;20039;-65
2023/06/11 02:18:00;;;;;;;17.20;11.27;;;13.50;99.90;;;;;;5101540;28;20061;-65
2023/06/11 02:20:27;;;;;;;13.88;9.57;;;13.50;99.90;;;;;;5110128;27;20047;-65
2023/06/11 02:22:54;;;;;;;14.35;8.77;;;13.50;99.90;;;;;;5098059;28;20111;-65
2023/06/11 02:25:21;;;;;;;14.10;9.60;;;13.50;99.90;;;;;;5093081;28;20499;-66
2023/06/11 02:27:49;;;;;;;14.75;9.35;;;13.50;99.90;;;;;;5107835;28;20036;-65
2023/06/11 02:30:16;;;;;;;12.93;8.93;;;13.40;99.90;;;;;;5110667;28;20077;-65
2023/06/11 02:32:44;;;;;;;13.35;9.30;;;13.40;99.90;;;;;;5099992;28;20043;-65
2023/06/11 02:35:12;;;;;;;13.55;8.77;;;13.40;99.90;;;;;;5096637;28;20089;-65
2023/06/11 02:37:40;;;;;;;13.20;9.18;;;13.40;99.90;;;;;;5113258;27;20039;-65
2023/06/11 02:40:08;;;;;;;14.88;10.25;;;13.30;99.90;;;;;;5106128;28;20066;-65
2023/06/11 02:42:34;;;;;;;;;;;13.40;99.90;;;;;;5092662;28;20403;-65
2023/06/11 02:45:01;;;;;;;14.05;9.00;;;13.30;99.90;;;;;;5120710;28;19923;-65
2023/06/11 02:47:29;;;;;;;15.60;9.55;;;13.30;99.90;;;;;;5130247;27;20035;-66
2023/06/11 02:49:56;;;;;;;12.93;9.00;;;13.30;99.90;;;;;;5114543;27;20035;-65
2023/06/11 02:52:23;;;;;;;13.63;9.70;;;13.30;99.90;;;;;;5096100;27;20054;-66
2023/06/11 02:54:50;;;;;;;17.42;9.43;;;13.30;99.90;;;;;;5104540;27;20031;-65
2023/06/11 02:57:17;;;;;;;;;;;13.30;99.90;;;;;;5116337;27;20043;-65
2023/06/11 02:59:44;;;;;;;15.45;10.38;;;13.20;99.90;;;;;;5110965;27;20353;-65
2023/06/11 03:02:11;;;;;;;14.02;9.65;;;13.20;99.90;;;;;;5114876;27;20139;-65
2023/06/11 03:04:37;;;;;;;14.48;10.38;;;13.20;99.90;;;;;;5112465;28;20048;-65
2023/06/11 03:07:05;;;;;;;16.55;10.82;;;13.30;99.90;;;;;;5109720;27;20093;-65
2023/06/11 03:09:32;;;;;;;15.70;10.02;;;13.30;99.90;;;;;;5116674;27;20436;-66
2023/06/11 03:11:59;;;;;;;15.77;10.52;;;13.30;99.90;;;;;;5096236;28;20492;-65
2023/06/11 03:14:26;;;;;;;14.38;9.70;;;13.40;99.90;;;;;;5101174;27;20036;-65
2023/06/11 03:16:53;;;;;;;16.80;9.75;;;13.40;99.90;;;;;;5135153;27;20050;-66
2023/06/11 03:19:20;;;;;;;12.15;8.40;;;13.40;99.90;;;;;;5111965;27;20791;-66
2023/06/11 03:21:49;;;;;;;12.20;8.60;;;13.40;99.90;;;;;;5104593;28;20127;-66
2023/06/11 03:24:16;;;;;;;13.20;8.77;;;13.40;99.90;;;;;;5105015;28;20496;-66
2023/06/11 03:26:43;;;;;;;11.10;8.05;;;13.50;99.90;;;;;;5100810;27;20075;-66
2023/06/11 03:29:13;;;;;;;12.93;8.35;;;13.50;99.90;;;;;;5097329;27;20084;-66
2023/06/11 03:31:47;;;;;;;12.27;8.38;;;13.60;99.90;;;;;;5109496;28;20553;-66
2023/06/11 03:34:15;;;;;;;11.00;8.05;;;13.60;99.90;;;;;;5114696;27;20043;-66
2023/06/11 03:36:42;;;;;;;13.13;8.45;;;13.60;99.90;;;;;;5109648;27;20200;-65
2023/06/11 03:39:13;;;;;;;12.60;8.38;;;13.60;99.90;;;;;;5095848;28;20070;-66
2023/06/11 03:41:40;;;;;;;12.10;8.45;;;13.70;99.90;;;;;;5078695;28;20451;-66
2023/06/11 03:44:07;;;;;;;12.75;8.27;;;13.70;99.90;;;;;;5099923;28;20519;-66
2023/06/11 03:46:34;;;;;;;13.65;8.60;;;13.70;99.90;;;;;;5115733;27;20043;-65
2023/06/11 03:49:02;;;;;;;11.70;8.68;;;13.60;99.90;;;;;;5116845;27;20031;-65
2023/06/11 03:51:29;;;;;;;12.10;8.27;;;13.70;99.90;;;;;;5101701;27;20075;-65
2023/06/11 03:53:56;;;;;;;16.98;8.95;;;13.60;99.90;;;;;;5105266;27;20073;-65
2023/06/11 03:56:23;;;;;;;14.95;9.20;;;13.60;99.90;;;;;;5096430;28;20119;-65
2023/06/11 03:58:50;;;;;;;12.70;9.73;;;13.60;99.90;;;;;;5101236;28;20155;-65
2023/06/11 04:01:17;;;;;;;13.07;9.38;;;13.60;99.90;;;;;;5106639;27;20147;-66
2023/06/11 04:03:44;;;;;;;14.13;8.55;;;13.70;99.90;;;;;;5101668;28;20683;-65
2023/06/11 04:06:11;;;;;;;14.52;9.23;;;13.70;99.90;;;;;;5103864;27;20036;-65
2023/06/11 04:08:38;;;;;;;12.13;8.80;;;13.70;99.90;;;;;;5105279;27;20453;-65
2023/06/11 04:11:05;;;;;;;16.05;8.70;;;13.70;99.90;;;;;;5113953;27;20039;-65
2023/06/11 04:13:32;;;;;;;13.98;9.02;;;13.70;99.90;;;;;;5103085;28;20399;-65
2023/06/11 04:15:59;;;;;;;13.60;8.85;;;13.70;99.90;;;;;;5107195;27;20047;-65
2023/06/11 04:18:28;;;;;;;13.55;8.25;;;13.70;99.90;;;;;;5103595;28;20118;-65
2023/06/11 04:20:55;;;;;;;13.32;9.20;;;13.70;99.90;;;;;;5115586;27;20074;-65
2023/06/11 04:23:22;;;;;;;15.13;8.60;;;13.70;99.90;;;;;;5134429;27;20451;-65
2023/06/11 04:25:49;;;;;;;15.02;8.70;;;13.70;99.90;;;;;;5103633;28;20047;-65
2023/06/11 04:28:18;;;;;;;14.13;9.70;;;13.80;99.90;;;;;;5103041;27;20495;-66
2023/06/11 04:30:46;;;;;;;15.05;9.23;;;13.90;99.90;;;;;;5111901;28;20126;-66
2023/06/11 04:33:15;;;;;;;13.55;8.98;;;14.00;99.90;;;;;;5115115;27;20051;-66
2023/06/11 04:35:43;;;;;;;14.82;8.43;;;14.00;99.90;;;;;;5110130;28;20061;-66
2023/06/11 04:38:10;;;;;;;11.73;8.60;;;14.10;99.90;;;;;;5095125;27;20119;-66
2023/06/11 04:40:39;;;;;;;16.60;9.57;;;14.10;99.90;;;;;;5102156;27;20047;-66
2023/06/11 04:43:07;;;;;;;12.00;8.57;;;14.20;99.90;;;;;;5132167;27;20491;-65
2023/06/11 04:45:36;;;;;;;12.65;9.10;;;14.20;99.90;;;;;;5108092;27;20047;-65
2023/06/11 04:48:03;;;;;;;17.30;9.35;;;14.30;99.90;;;;;;5110127;28;20419;-66
2023/06/11 04:50:32;;;;;;;16.50;8.98;;;14.30;99.90;;;;;;5098589;27;20075;-66
2023/06/11 04:53:01;;;;;;;12.07;8.75;;;14.20;99.90;;;;;;5106176;27;20031;-66
2023/06/11 04:55:32;;;;;;;;;;;14.20;99.90;;;;;;5115941;27;20516;-66
2023/06/11 04:57:59;;;;;;;11.43;7.80;;;14.20;99.90;;;;;;5110559;28;20388;-65
2023/06/11 05:00:28;;;;;;;13.50;8.55;;;14.20;99.90;;;;;;5095731;27;20051;-66
2023/06/11 05:02:58;;;;;;;11.95;8.35;;;14.20;99.90;;;;;;5101560;27;20054;-66
2023/06/11 05:05:25;;;;;;;13.18;8.43;;;14.30;99.90;;;;;;5111415;27;20043;-66
2023/06/11 05:07:52;;;;;;;13.32;8.52;;;14.30;99.90;;;;;;5100878;27;20058;-65
2023/06/11 05:10:20;;;;;;;;;;;14.30;99.90;;;;;;5104599;27;20044;-66
2023/06/11 05:12:47;;;;;;;12.05;8.10;;;14.30;99.90;;;;;;5108259;27;20302;-65
2023/06/11 05:15:13;;;;;;;14.32;9.07;;;14.40;99.90;;;;;;5097933;27;20101;-66
2023/06/11 05:17:41;;;;;;;15.77;8.57;;;14.40;99.90;;;;;;5111723;27;20133;-65
2023/06/11 05:20:08;;;;;;;13.88;8.55;;;14.50;99.90;;;;;;5105710;27;20464;-66
2023/06/11 05:22:35;;;;;;;;;;;14.50;99.90;;;;;;5094444;28;20456;-65
2023/06/11 05:25:02;;;;;;;14.65;9.35;;;14.70;99.90;;;;;;5101611;27;19930;-66
2023/06/11 05:27:29;;;;;;;15.38;9.93;;;14.70;99.90;;;;;;5119572;27;20453;-66
2023/06/11 05:29:59;;;;;;;11.75;8.88;;;14.70;99.90;;;;;;5094744;28;20522;-66
2023/06/11 05:32:30;;;;;;;14.25;9.75;;;14.70;99.90;;;;;;5103100;27;20043;-66
2023/06/11 05:34:59;;;;;;;11.73;8.27;;;14.80;99.90;;;;;;5114084;27;20039;-65
2023/06/11 05:37:26;;;;;;;13.52;8.07;;;14.70;99.90;;;;;;5132619;27;20518;-65
2023/06/11 05:39:53;;;;;;;10.55;7.80;;;14.70;99.90;;;;;;5110729;27;20455;-66
2023/06/11 05:42:21;;;;;;;12.13;8.27;;;14.90;99.90;;;;;;5111615;27;20578;-66
2023/06/11 05:44:48;;;;;;;10.77;8.18;;;15.00;99.90;;;;;;5104417;27;20515;-66
2023/06/11 05:47:15;;;;;;;13.10;8.27;;;15.20;99.90;;;;;;5101022;27;20053;-66
2023/06/11 05:49:44;;;;;;;11.68;7.90;;;15.40;99.90;;;;;;5107239;27;20039;-66
2023/06/11 05:52:10;;;;;;;11.02;7.15;;;15.70;99.90;;;;;;5108537;27;20089;-66
2023/06/11 05:54:37;;;;;;;10.95;8.65;;;15.80;99.90;;;;;;5108251;27;20065;-66
2023/06/11 05:57:08;;;;;;;11.48;8.02;;;16.00;99.90;;;;;;5109284;27;20038;-66
2023/06/11 05:59:35;;;;;;;15.77;10.30;;;16.10;99.90;;;;;;5110770;27;20061;-66
2023/06/11 06:02:02;;;;;;;14.50;9.05;;;16.20;99.90;;;;;;5129600;27;20051;-66
2023/06/11 06:04:30;;;;;;;12.65;9.27;;;16.30;99.90;;;;;;5108058;27;20047;-66
2023/06/11 06:06:57;;;;;;;14.98;9.25;;;16.40;99.90;;;;;;5112352;27;20556;-66
2023/06/11 06:09:24;;;;;;;15.38;10.32;;;16.60;99.90;;;;;;5110899;27;20050;-66
2023/06/11 06:11:51;;;;;;;15.30;10.43;;;16.60;99.90;;;;;;5108471;28;20142;-66
2023/06/11 06:14:19;;;;;;;21.27;11.20;;;16.50;99.90;;;;;;5092888;27;20119;-66
2023/06/11 06:16:48;;;;;;;22.42;10.93;;;16.50;99.90;;;;;;5112265;27;20035;-66
2023/06/11 06:19:19;;;;;;;17.50;11.65;;;16.50;99.90;;;;;;5110319;28;20134;-66
2023/06/11 06:21:46;;;;;;;19.08;12.10;;;16.40;99.90;;;;;;5109590;28;20039;-66
2023/06/11 06:24:14;;;;;;;22.38;13.27;;;16.40;99.90;;;;;;5111412;27;20062;-66
2023/06/11 06:26:41;;;;;;;20.27;13.57;;;16.40;99.90;;;;;;5112293;28;20031;-66
2023/06/11 06:29:09;;;;;;;22.58;13.25;;;16.40;99.90;;;;;;5110674;28;20043;-66
2023/06/11 06:31:36;;;;;;;22.40;14.15;;;16.50;99.90;;;;;;5102693;27;20039;-66
2023/06/11 06:34:04;;;;;;;22.05;13.43;;;16.40;99.90;;;;;;5110395;27;20080;-66
2023/06/11 06:36:35;;;;;;;18.45;12.90;;;16.40;99.90;;;;;;5102100;28;20031;-66
2023/06/11 06:39:02;;;;;;;18.92;12.43;;;16.50;99.90;;;;;;5092368;28;20130;-66
2023/06/11 06:41:29;;;;;;;18.25;11.50;;;16.60;99.90;;;;;;5104834;28;20096;-66
2023/06/11 06:44:01;;;;;;;19.38;13.02;;;16.70;99.90;;;;;;5091754;28;20043;-66
2023/06/11 06:46:29;;;;;;;17.73;12.05;;;16.80;99.90;;;;;;5126605;28;20066;-66
2023/06/11 06:48:56;;;;;;;19.50;11.68;;;16.90;99.90;;;;;;5110345;28;20035;-66
2023/06/11 06:51:23;;;;;;;16.58;12.15;;;17.10;99.90;;;;;;5100974;28;20039;-66
2023/06/11 06:53:50;;;;;;;19.08;12.90;;;17.20;99.90;;;;;;5103095;28;20043;-66
2023/06/11 06:56:17;;;;;;;;;;;17.30;99.90;;;;;;5102156;28;20095;-66
2023/06/11 06:58:45;;;;;;;22.10;12.98;;;17.40;99.90;;;;;;5098333;28;19927;-66
2023/06/11 07:01:12;;;;;;;19.27;13.38;;;17.60;99.90;;;;;;5101515;28;20044;-66
2023/06/11 07:03:41;;;;;;;17.95;12.75;;;17.70;99.90;;;;;;5100298;28;20135;-66
2023/06/11 07:06:08;;;;;;;17.95;13.55;;;17.80;99.90;;;;;;5101548;28;20076;-66
2023/06/11 07:08:37;;;;;;;19.83;14.10;;;17.90;99.90;;;;;;5111984;28;20039;-66
2023/06/11 07:11:04;;;;;;;23.15;15.20;;;18.00;99.90;;;;;;5097453;28;20071;-66
2023/06/11 07:13:37;;;;;;;26.77;15.35;;;18.10;99.90;;;;;;5096847;28;20038;-66
2023/06/11 07:16:05;;;;;;;20.10;14.55;;;18.20;99.90;;;;;;5123227;28;20430;-66
2023/06/11 07:18:34;;;;;;;25.63;17.17;;;18.20;99.90;;;;;;5111919;28;20051;-66
2023/06/11 07:21:01;;;;;;;29.08;17.50;;;18.20;99.90;;;;;;5113063;28;20118;-66
2023/06/11 07:23:28;;;;;;;25.75;17.35;;;18.20;99.90;;;;;;5124450;28;20130;-66
2023/06/11 07:25:55;;;;;;;22.80;16.00;;;18.20;99.90;;;;;;5122708;28;20085;-66
2023/06/11 07:28:24;;;;;;;22.90;15.65;;;18.50;99.90;;;;;;5092770;28;20096;-66
2023/06/11 07:30:52;;;;;;;20.48;14.60;;;18.60;99.90;;;;;;5102039;28;20463;-66
2023/06/11 07:33:19;;;;;;;20.45;14.15;;;18.70;99.90;;;;;;5121996;28;20119;-66
2023/06/11 07:35:49;;;;;;;;;;;18.90;99.90;;;;;;5102264;27;20034;-66
2023/06/11 07:38:17;;;;;;;16.48;11.93;;;18.90;99.90;;;;;;5104477;28;19972;-66
2023/06/11 07:40:44;;;;;;;18.90;12.82;;;18.90;99.90;;;;;;5107439;27;20043;-66
2023/06/11 07:43:10;;;;;;;15.15;11.00;;;18.90;99.90;;;;;;5103497;27;20039;-66
2023/06/11 07:45:37;;;;;;;14.98;11.52;;;18.90;99.90;;;;;;5105155;28;20086;-66
2023/06/11 07:48:04;;;;;;;17.02;12.50;;;19.00;99.90;;;;;;5101120;28;20089;-66
2023/06/11 07:50:32;;;;;;;17.10;12.40;;;19.00;99.90;;;;;;5102883;28;20073;-66
2023/06/11 07:52:59;;;;;;;16.65;13.18;;;19.20;99.90;;;;;;5104354;28;20058;-66
2023/06/11 07:55:27;;;;;;;15.52;12.48;;;19.40;99.90;;;;;;5109130;27;20518;-66
2023/06/11 07:57:54;;;;;;;17.92;12.68;;;19.50;99.90;;;;;;5135234;27;20044;-66
2023/06/11 08:00:22;;;;;;;16.27;12.52;;;19.40;99.90;;;;;;5122962;27;20039;-66
2023/06/11 08:02:49;;;;;;;17.20;13.32;;;19.20;99.90;;;;;;5128702;27;20035;-66
2023/06/11 08:05:19;;;;;;;15.93;11.85;;;18.90;99.90;;;;;;5105313;27;20706;-66
2023/06/11 08:07:47;;;;;;;;;;;18.90;99.90;;;;;;5133114;27;20449;-66
2023/06/11 08:10:14;;;;;;;16.88;11.75;;;19.00;99.90;;;;;;5126945;27;19925;-66
2023/06/11 08:12:41;;;;;;;17.75;14.02;;;19.10;99.90;;;;;;5132320;27;20623;-66
2023/06/11 08:15:08;;;;;;;19.35;13.90;;;19.00;99.90;;;;;;5113420;27;20119;-66
2023/06/11 08:17:35;;;;;;;;;;;19.00;99.90;;;;;;5112653;27;20070;-66
2023/06/11 08:20:06;;;;;;;20.00;13.18;;;19.20;99.90;;;;;;5113278;28;19928;-66
2023/06/11 08:22:33;;;;;;;17.83;11.82;;;19.40;99.90;;;;;;5111826;27;20107;-65
2023/06/11 08:25:00;;;;;;;17.52;11.80;;;19.30;99.90;;;;;;5103746;28;20036;-66
2023/06/11 08:27:26;;;;;;;14.82;11.15;;;19.50;99.90;;;;;;5112855;27;20077;-66
2023/06/11 08:29:53;;;;;;;15.73;12.02;;;19.60;99.90;;;;;;5106596;27;20043;-66
2023/06/11 08:32:20;;;;;;;17.65;11.82;;;19.70;99.90;;;;;;5111224;27;20514;-66
2023/06/11 08:34:47;;;;;;;19.45;13.10;;;19.50;99.90;;;;;;5111604;27;20035;-66
2023/06/11 08:37:14;;;;;;;15.57;10.93;;;19.40;99.90;;;;;;5106369;27;20110;-66
2023/06/11 08:39:41;;;;;;;;;;;19.30;99.90;;;;;;5130462;27;20498;-66
2023/06/11 08:42:08;;;;;;;16.90;12.85;;;19.50;99.90;;;;;;5117142;27;19927;-66
2023/06/11 08:44:35;;;;;;;16.20;11.05;;;19.60;99.90;;;;;;5133770;27;20411;-66
2023/06/11 08:47:03;;;;;;;16.48;11.73;;;19.40;99.90;;;;;;5120551;27;20039;-66
2023/06/11 08:49:31;;;;;;;17.83;11.52;;;19.40;99.90;;;;;;5117788;27;20053;-66
2023/06/11 08:52:02;;;;;;;16.45;10.68;;;19.60;99.90;;;;;;5123019;27;20043;-66
2023/06/11 08:54:29;;;;;;;13.23;10.05;;;19.60;99.90;;;;;;5129872;27;20047;-66
2023/06/11 08:56:56;;;;;;;13.45;10.68;;;19.90;99.90;;;;;;5131335;27;20050;-66
2023/06/11 08:59:23;;;;;;;15.63;10.38;;;20.30;99.90;;;;;;5124807;27;20043;-66
2023/06/11 09:01:52;;;;;;;12.00;9.75;;;20.40;99.90;;;;;;5121343;27;20050;-66
2023/06/11 09:04:20;;;;;;;10.98;9.77;;;20.10;99.90;;;;;;5125227;27;20047;-66
2023/06/11 09:06:58;;;;;;;12.50;9.35;;;19.90;99.90;;;;;;5132246;27;20039;-66
2023/06/11 09:09:25;;;;;;;10.50;9.20;;;19.60;99.90;;;;;;5129593;27;20039;-66
2023/06/11 09:11:52;;;;;;;11.57;10.05;;;19.40;99.90;;;;;;5111375;27;20385;-66
2023/06/11 09:14:20;;;;;;;11.70;9.43;;;19.30;99.90;;;;;;5113772;27;20051;-65
2023/06/11 09:16:47;;;;;;;;;;;19.30;99.90;;;;;;5129407;27;20431;-66
2023/06/11 09:19:19;;;;;;;13.13;9.68;;;19.40;99.90;;;;;;5130622;27;19942;-66
2023/06/11 09:21:52;;;;;;;13.82;10.38;;;19.60;99.90;;;;;;5121077;27;20062;-66
2023/06/11 09:24:20;;;;;;;11.38;9.38;;;19.80;99.90;;;;;;5129169;27;20047;-66
2023/06/11 09:26:56;;;;;;;14.88;10.60;;;20.30;99.90;;;;;;5111265;28;20054;-66
2023/06/11 09:29:24;;;;;;;13.50;9.88;;;20.30;99.90;;;;;;5130482;27;20077;-66
2023/06/11 09:32:08;;;;;;;12.00;9.70;;;20.20;99.90;;;;;;5121571;27;20038;-66
2023/06/11 09:34:57;;;;;;;12.07;9.38;;;19.90;99.90;;;;;;5111228;27;20036;-66
2023/06/11 09:37:25;;;;;;;14.07;10.70;;;19.60;99.90;;;;;;5137855;27;20043;-66
2023/06/11 09:39:51;;;;;;;;;;;19.50;99.90;;;;;;5130992;27;20043;-66
2023/06/11 09:42:27;;;;;;;12.07;10.05;;;19.60;99.90;;;;;;5111688;27;19927;-66
2023/06/11 09:44:58;;;;;;;12.85;9.98;;;19.60;99.90;;;;;;5130822;27;20039;-66
2023/06/11 09:47:27;;;;;;;11.07;9.05;;;19.50;99.90;;;;;;5113317;28;20490;-66
2023/06/11 09:49:56;;;;;;;11.77;9.85;;;19.40;99.90;;;;;;5108284;27;20483;-66
2023/06/11 09:52:24;;;;;;;12.07;9.45;;;19.50;99.90;;;;;;5102131;28;20426;-65
2023/06/11 09:54:52;;;;;;;11.38;9.10;;;19.70;99.90;;;;;;5089846;27;20658;-66
2023/06/11 09:57:20;;;;;;;11.23;9.13;;;19.90;99.90;;;;;;5129799;27;20122;-66
2023/06/11 09:59:48;;;;;;;13.45;9.35;;;20.00;99.90;;;;;;5125335;27;20039;-66
2023/06/11 10:02:15;;;;;;;10.90;9.32;;;20.30;99.90;;;;;;5108252;27;20039;-66
2023/06/11 10:04:42;;;;;;;12.32;9.25;;;20.50;99.90;;;;;;5130466;27;20043;-66
2023/06/11 10:07:11;;;;;;;11.57;8.73;;;20.60;99.90;;;;;;5112841;27;20054;-66
2023/06/11 10:09:40;;;;;;;13.60;8.90;;;20.90;99.90;;;;;;5108366;27;20476;-66
2023/06/11 10:12:08;;;;;;;10.80;8.00;;;21.30;99.90;;;;;;5125879;27;20041;-66
2023/06/11 10:14:36;;;;;;;9.80;8.70;;;21.90;99.90;;;;;;5128290;27;20047;-66
2023/06/11 10:17:08;;;;;;;11.20;8.35;;;22.10;99.90;;;;;;5123962;27;20073;-66
2023/06/11 10:19:39;;;;;;;12.27;9.07;;;22.40;99.90;;;;;;5127566;27;20106;-66
2023/06/11 10:22:06;;;;;;;10.68;8.25;;;22.50;99.90;;;;;;5110821;28;20049;-66
2023/06/11 10:24:33;;;;;;;10.57;8.77;;;22.70;99.90;;;;;;5105665;28;20043;-66
2023/06/11 10:27:05;;;;;;;12.80;8.15;;;22.80;99.90;;;;;;5130356;27;20042;-66
2023/06/11 10:29:40;;;;;;;9.85;8.30;;;22.60;99.90;;;;;;5128054;27;20403;-66
2023/06/11 10:32:22;;;;;;;12.48;9.30;;;22.30;99.90;;;;;;5128065;27;20035;-66
2023/06/11 10:34:55;;;;;;;10.93;8.80;;;22.00;99.90;;;;;;5127721;27;20047;-66
2023/06/11 10:37:36;;;;;;;12.88;8.65;;;22.10;99.90;;;;;;5124888;27;20043;-66
2023/06/11 10:40:08;;;;;;;9.95;8.55;;;22.40;99.90;;;;;;5129015;27;20039;-66
2023/06/11 10:42:41;;;;;;;9.30;8.02;;;22.60;99.90;;;;;;5120612;27;20513;-66
2023/06/11 10:45:10;;;;;;;16.10;9.20;;;22.80;99.90;;;;;;5111743;28;20085;-66
2023/06/11 10:47:46;;;;;;;11.32;9.10;;;22.90;99.90;;;;;;5105615;27;20074;-65
2023/06/11 10:50:15;;;;;;;9.20;8.25;;;23.00;99.90;;;;;;5126235;28;20043;-66
2023/06/11 10:52:54;;;;;;;10.93;8.45;;;23.10;99.90;;;;;;5110179;27;20046;-66
2023/06/11 10:55:22;;;;;;;14.93;8.90;;;22.50;99.90;;;;;;5121023;27;20047;-66
2023/06/11 10:57:53;;;;;;;13.30;8.57;;;22.40;99.90;;;;;;5111075;28;20062;-66
2023/06/11 11:00:20;;;;;;;10.50;8.52;;;22.10;99.90;;;;;;5130179;28;20050;-66
2023/06/11 11:02:48;;;;;;;10.77;9.18;;;21.70;99.90;;;;;;5109931;27;20400;-66
2023/06/11 11:05:15;;;;;;;11.20;8.75;;;21.40;99.90;;;;;;5128523;28;20054;-66
2023/06/11 11:07:45;;;;;;;13.30;8.70;;;21.20;99.90;;;;;;5134459;27;20043;-67
2023/06/11 11:10:18;;;;;;;12.35;8.77;;;21.60;99.90;;;;;;5134206;27;20035;-67
2023/06/11 11:12:47;;;;;;;11.10;8.75;;;21.80;99.90;;;;;;5128806;27;20039;-66
2023/06/11 11:15:15;;;;;;;13.75;8.07;;;22.20;99.90;;;;;;5132634;27;20038;-66
2023/06/11 11:17:43;;;;;;;10.85;7.63;;;22.70;99.90;;;;;;5134725;27;20031;-66
2023/06/11 11:20:13;;;;;;;11.30;7.65;;;22.90;99.90;;;;;;5133881;27;20027;-66
2023/06/11 11:22:40;;;;;;;9.27;7.30;;;23.00;99.90;;;;;;5126251;27;20039;-67
2023/06/11 11:25:07;;;;;;;10.02;7.47;;;23.10;99.90;;;;;;5132979;27;20035;-66
2023/06/11 11:27:37;;;;;;;8.00;6.28;;;23.20;99.90;;;;;;5131384;27;20070;-66
2023/06/11 11:30:06;;;;;;;7.82;6.65;;;23.40;99.90;;;;;;5133348;27;20493;-68
2023/06/11 11:32:34;;;;;;;8.80;6.72;;;23.50;99.90;;;;;;5134063;27;20151;-68
2023/06/11 11:35:03;;;;;;;8.82;7.30;;;23.60;99.90;;;;;;5132599;27;20122;-66
2023/06/11 11:37:31;;;;;;;9.18;7.20;;;23.70;99.90;;;;;;5099366;27;20419;-66
2023/06/11 11:40:07;;;;;;;7.97;6.20;;;24.00;99.90;;;;;;5101834;28;20040;-66
2023/06/11 11:42:50;;;;;;;7.22;6.20;;;24.00;99.90;;;;;;5125126;27;20051;-66
2023/06/11 11:45:18;;;;;;;9.13;6.28;;;24.00;99.90;;;;;;5122630;27;20051;-65
2023/06/11 11:47:51;;;;;;;7.30;6.60;;;24.10;99.90;;;;;;5134725;27;20665;-66
2023/06/11 11:50:27;;;;;;;7.45;6.22;;;24.20;99.90;;;;;;5133333;27;20043;-65
2023/06/11 11:53:05;;;;;;;10.85;6.57;;;24.00;99.90;;;;;;5110466;28;20040;-65
2023/06/11 11:55:46;;;;;;;6.47;5.72;;;24.10;99.90;;;;;;5127452;27;20088;-65
2023/06/11 11:58:16;;;;;;;7.22;6.00;;;24.40;99.90;;;;;;5109604;28;20055;-65
2023/06/11 12:00:58;;;;;;;7.13;6.20;;;24.70;99.90;;;;;;5113107;27;20039;-65
2023/06/11 12:03:26;;;;;;;7.75;6.07;;;24.90;99.90;;;;;;5122757;27;20499;-65
2023/06/11 12:06:00;;;;;;;8.27;6.07;;;24.90;99.90;;;;;;5115537;27;20038;-65
2023/06/11 12:08:30;;;;;;;6.85;6.15;;;24.60;99.90;;;;;;5121988;27;20048;-64
2023/06/11 12:10:58;;;;;;;6.95;5.82;;;24.50;99.90;;;;;;5128321;27;20055;-67
2023/06/11 12:13:25;;;;;;;8.30;5.50;;;24.40;99.90;;;;;;5122089;27;20066;-67
2023/06/11 12:15:52;;;;;;;6.65;5.25;;;24.30;99.90;;;;;;5097032;28;20032;-67
2023/06/11 12:18:20;;;;;;;6.20;5.55;;;24.50;99.90;;;;;;5121711;27;20039;-68
2023/06/11 12:20:47;;;;;;;;;;;24.80;99.90;;;;;;5113040;28;20160;-67
2023/06/11 12:23:14;;;;;;;7.70;6.07;;;24.80;99.90;;;;;;5111958;27;19919;-66
2023/06/11 12:25:42;;;;;;;7.75;6.15;;;24.80;99.90;;;;;;5126438;27;20067;-64
2023/06/11 12:28:09;;;;;;;5.68;5.07;;;24.80;99.90;;;;;;5113206;27;20042;-64
2023/06/11 12:30:36;;;;;;;7.72;5.13;;;24.70;99.90;;;;;;5126730;27;20049;-64
2023/06/11 12:33:03;;;;;;;;;;;24.70;99.90;;;;;;5123295;27;20069;-64
2023/06/11 12:35:30;;;;;;;8.40;5.53;;;24.90;99.90;;;;;;5121801;27;19923;-64
2023/06/11 12:38:01;;;;;;;7.18;5.00;;;24.80;99.90;;;;;;5110822;28;20028;-66
2023/06/11 12:40:30;;;;;;;7.00;5.20;;;24.70;99.90;;;;;;5122983;27;20054;-65
2023/06/11 12:42:58;;;;;;;6.80;5.32;;;24.90;99.90;;;;;;5120255;27;20055;-65
2023/06/11 12:45:27;;;;;;;9.00;5.05;;;25.10;99.90;;;;;;5094954;27;20071;-65